sensor_id;sensor_type;location;lat;lon;timestamp;temperature;humidity
42755;DHT22;28407;51.830;5.684;2022-11-06T00:00:14;11.00;82.80
42755;DHT22;28407;51.830;5.684;2022-11-06T00:02:15;10.90;82.80
42755;DHT22;28407;51.830;5.684;2022-11-06T00:04:16;10.90;82.80
42755;DHT22;28407;51.830;5.684;2022-11-06T00:06:17;10.90;82.90
42755;DHT22;28407;51.830;5.684;2022-11-06T00:08:38;10.90;82.90
42755;DHT22;28407;51.830;5.684;2022-11-06T00:10:40;10.90;82.90
42755;DHT22;28407;51.830;5.684;2022-11-06T00:12:41;10.90;82.90
42755;DHT22;28407;51.830;5.684;2022-11-06T00:14:42;10.90;83.00
42755;DHT22;28407;51.830;5.684;2022-11-06T00:16:44;10.90;83.00
42755;DHT22;28407;51.830;5.684;2022-11-06T00:18:45;10.90;83.00
42755;DHT22;28407;51.830;5.684;2022-11-06T00:20:46;10.90;82.90
42755;DHT22;28407;51.830;5.684;2022-11-06T00:22:47;10.90;83.00
42755;DHT22;28407;51.830;5.684;2022-11-06T00:24:48;10.90;83.00
42755;DHT22;28407;51.830;5.684;2022-11-06T00:26:48;10.90;83.10
42755;DHT22;28407;51.830;5.684;2022-11-06T00:28:49;10.90;83.00
42755;DHT22;28407;51.830;5.684;2022-11-06T00:30:50;10.80;83.00
42755;DHT22;28407;51.830;5.684;2022-11-06T00:32:59;10.90;83.10
42755;DHT22;28407;51.830;5.684;2022-11-06T00:35:00;10.90;83.00
42755;DHT22;28407;51.830;5.684;2022-11-06T00:37:00;10.80;82.90
42755;DHT22;28407;51.830;5.684;2022-11-06T00:39:01;10.90;83.00
42755;DHT22;28407;51.830;5.684;2022-11-06T00:41:03;10.90;83.00
42755;DHT22;28407;51.830;5.684;2022-11-06T00:43:04;10.90;83.10
42755;DHT22;28407;51.830;5.684;2022-11-06T00:45:05;10.90;83.10
42755;DHT22;28407;51.830;5.684;2022-11-06T00:47:06;10.80;83.10
42755;DHT22;28407;51.830;5.684;2022-11-06T00:49:06;10.80;83.10
42755;DHT22;28407;51.830;5.684;2022-11-06T00:51:16;10.80;83.10
42755;DHT22;28407;51.830;5.684;2022-11-06T00:53:17;10.80;83.10
42755;DHT22;28407;51.830;5.684;2022-11-06T00:55:18;10.80;83.10
42755;DHT22;28407;51.830;5.684;2022-11-06T00:57:18;10.80;83.10
42755;DHT22;28407;51.830;5.684;2022-11-06T00:59:19;10.80;83.10
42755;DHT22;28407;51.830;5.684;2022-11-06T01:01:31;10.80;83.10
42755;DHT22;28407;51.830;5.684;2022-11-06T01:03:32;10.80;83.10
42755;DHT22;28407;51.830;5.684;2022-11-06T01:05:33;10.80;83.10
42755;DHT22;28407;51.830;5.684;2022-11-06T01:07:34;10.80;83.20
42755;DHT22;28407;51.830;5.684;2022-11-06T01:09:35;10.80;83.20
42755;DHT22;28407;51.830;5.684;2022-11-06T01:11:39;10.80;83.10
42755;DHT22;28407;51.830;5.684;2022-11-06T01:13:41;10.80;83.20
42755;DHT22;28407;51.830;5.684;2022-11-06T01:15:41;10.80;83.20
42755;DHT22;28407;51.830;5.684;2022-11-06T01:17:42;10.80;83.20
42755;DHT22;28407;51.830;5.684;2022-11-06T01:19:43;10.80;83.20
42755;DHT22;28407;51.830;5.684;2022-11-06T01:21:45;10.70;83.30
42755;DHT22;28407;51.830;5.684;2022-11-06T01:23:46;10.80;83.30
42755;DHT22;28407;51.830;5.684;2022-11-06T01:25:56;10.80;83.40
42755;DHT22;28407;51.830;5.684;2022-11-06T01:27:57;10.70;83.30
42755;DHT22;28407;51.830;5.684;2022-11-06T01:29:57;10.70;83.30
42755;DHT22;28407;51.830;5.684;2022-11-06T01:31:58;10.70;83.30
42755;DHT22;28407;51.830;5.684;2022-11-06T01:34:00;10.70;83.20
42755;DHT22;28407;51.830;5.684;2022-11-06T01:36:01;10.70;83.30
42755;DHT22;28407;51.830;5.684;2022-11-06T01:38:01;10.70;83.30
42755;DHT22;28407;51.830;5.684;2022-11-06T01:40:02;10.70;83.40
42755;DHT22;28407;51.830;5.684;2022-11-06T01:42:04;10.70;83.40
42755;DHT22;28407;51.830;5.684;2022-11-06T01:46:42;10.70;83.60
42755;DHT22;28407;51.830;5.684;2022-11-06T01:48:53;10.60;83.40
42755;DHT22;28407;51.830;5.684;2022-11-06T01:50:57;10.60;83.40
42755;DHT22;28407;51.830;5.684;2022-11-06T01:52:58;10.60;83.40
42755;DHT22;28407;51.830;5.684;2022-11-06T01:55:11;10.60;83.40
42755;DHT22;28407;51.830;5.684;2022-11-06T01:57:12;10.60;83.40
42755;DHT22;28407;51.830;5.684;2022-11-06T01:59:15;10.60;83.40
42755;DHT22;28407;51.830;5.684;2022-11-06T02:01:17;10.60;83.40
42755;DHT22;28407;51.830;5.684;2022-11-06T02:03:18;10.60;83.40
42755;DHT22;28407;51.830;5.684;2022-11-06T02:05:18;10.60;83.40
42755;DHT22;28407;51.830;5.684;2022-11-06T02:07:19;10.70;83.40
42755;DHT22;28407;51.830;5.684;2022-11-06T02:09:20;10.70;83.40
42755;DHT22;28407;51.830;5.684;2022-11-06T02:11:21;10.70;83.40
42755;DHT22;28407;51.830;5.684;2022-11-06T02:15:57;10.70;83.40
42755;DHT22;28407;51.830;5.684;2022-11-06T02:20:31;10.70;83.40
42755;DHT22;28407;51.830;5.684;2022-11-06T02:24:59;10.70;83.50
42755;DHT22;28407;51.830;5.684;2022-11-06T02:27:17;10.70;83.50
42755;DHT22;28407;51.830;5.684;2022-11-06T02:29:21;10.70;83.50
42755;DHT22;28407;51.830;5.684;2022-11-06T02:31:28;10.70;83.40
42755;DHT22;28407;51.830;5.684;2022-11-06T02:33:34;10.70;83.50
42755;DHT22;28407;51.830;5.684;2022-11-06T02:35:49;10.70;83.50
42755;DHT22;28407;51.830;5.684;2022-11-06T02:37:56;10.70;83.50
42755;DHT22;28407;51.830;5.684;2022-11-06T02:39:59;10.70;83.50
42755;DHT22;28407;51.830;5.684;2022-11-06T02:42:02;10.80;83.60
42755;DHT22;28407;51.830;5.684;2022-11-06T02:44:06;10.80;83.50
42755;DHT22;28407;51.830;5.684;2022-11-06T02:46:12;10.80;83.50
42755;DHT22;28407;51.830;5.684;2022-11-06T02:48:17;10.80;83.60
42755;DHT22;28407;51.830;5.684;2022-11-06T02:50:26;10.80;83.60
42755;DHT22;28407;51.830;5.684;2022-11-06T02:52:48;10.80;83.50
42755;DHT22;28407;51.830;5.684;2022-11-06T02:55:03;10.80;83.50
42755;DHT22;28407;51.830;5.684;2022-11-06T02:57:08;10.80;83.50
42755;DHT22;28407;51.830;5.684;2022-11-06T02:59:38;10.80;83.50
42755;DHT22;28407;51.830;5.684;2022-11-06T03:01:59;10.80;83.60
42755;DHT22;28407;51.830;5.684;2022-11-06T03:04:29;10.80;83.50
42755;DHT22;28407;51.830;5.684;2022-11-06T03:06:39;10.80;83.60
42755;DHT22;28407;51.830;5.684;2022-11-06T03:08:47;10.80;83.50
42755;DHT22;28407;51.830;5.684;2022-11-06T03:11:04;10.80;83.50
42755;DHT22;28407;51.830;5.684;2022-11-06T03:13:18;10.80;83.50
42755;DHT22;28407;51.830;5.684;2022-11-06T03:15:40;10.80;83.50
42755;DHT22;28407;51.830;5.684;2022-11-06T03:17:51;10.80;83.50
42755;DHT22;28407;51.830;5.684;2022-11-06T03:20:05;10.80;83.50
42755;DHT22;28407;51.830;5.684;2022-11-06T03:22:34;10.80;83.50
42755;DHT22;28407;51.830;5.684;2022-11-06T03:24:55;10.80;83.40
42755;DHT22;28407;51.830;5.684;2022-11-06T03:26:58;10.90;83.50
42755;DHT22;28407;51.830;5.684;2022-11-06T03:31:12;10.80;84.10
42755;DHT22;28407;51.830;5.684;2022-11-06T03:33:19;10.90;83.50
42755;DHT22;28407;51.830;5.684;2022-11-06T03:35:27;10.80;83.40
42755;DHT22;28407;51.830;5.684;2022-11-06T03:37:42;10.90;83.50
42755;DHT22;28407;51.830;5.684;2022-11-06T03:39:50;10.90;83.50
42755;DHT22;28407;51.830;5.684;2022-11-06T03:41:58;10.90;83.50
42755;DHT22;28407;51.830;5.684;2022-11-06T03:44:00;10.90;83.50
42755;DHT22;28407;51.830;5.684;2022-11-06T03:46:08;10.90;83.50
42755;DHT22;28407;51.830;5.684;2022-11-06T03:48:38;10.90;83.50
42755;DHT22;28407;51.830;5.684;2022-11-06T03:50:54;10.90;83.50
42755;DHT22;28407;51.830;5.684;2022-11-06T03:53:13;10.90;83.50
42755;DHT22;28407;51.830;5.684;2022-11-06T03:55:18;10.90;83.40
42755;DHT22;28407;51.830;5.684;2022-11-06T03:57:30;10.90;83.40
42755;DHT22;28407;51.830;5.684;2022-11-06T03:59:36;10.90;83.40
42755;DHT22;28407;51.830;5.684;2022-11-06T04:01:43;11.00;83.40
42755;DHT22;28407;51.830;5.684;2022-11-06T04:03:52;10.90;83.40
42755;DHT22;28407;51.830;5.684;2022-11-06T04:06:01;11.00;83.50
42755;DHT22;28407;51.830;5.684;2022-11-06T04:08:03;11.00;83.40
42755;DHT22;28407;51.830;5.684;2022-11-06T04:10:23;11.00;83.40
42755;DHT22;28407;51.830;5.684;2022-11-06T04:12:43;11.00;83.40
42755;DHT22;28407;51.830;5.684;2022-11-06T04:15:04;11.00;83.40
42755;DHT22;28407;51.830;5.684;2022-11-06T04:17:08;11.00;83.40
42755;DHT22;28407;51.830;5.684;2022-11-06T04:19:17;11.00;83.40
42755;DHT22;28407;51.830;5.684;2022-11-06T04:24:02;11.00;83.40
42755;DHT22;28407;51.830;5.684;2022-11-06T04:26:29;11.10;83.50
42755;DHT22;28407;51.830;5.684;2022-11-06T04:28:50;11.00;83.40
42755;DHT22;28407;51.830;5.684;2022-11-06T04:31:15;11.00;83.40
42755;DHT22;28407;51.830;5.684;2022-11-06T04:33:25;11.00;83.40
42755;DHT22;28407;51.830;5.684;2022-11-06T04:38:07;11.00;83.50
42755;DHT22;28407;51.830;5.684;2022-11-06T04:40:11;11.00;83.50
42755;DHT22;28407;51.830;5.684;2022-11-06T04:42:27;11.00;83.50
42755;DHT22;28407;51.830;5.684;2022-11-06T04:44:29;11.00;83.50
42755;DHT22;28407;51.830;5.684;2022-11-06T04:46:53;11.00;83.50
42755;DHT22;28407;51.830;5.684;2022-11-06T04:48:56;11.00;83.50
42755;DHT22;28407;51.830;5.684;2022-11-06T04:51:02;11.00;83.50
42755;DHT22;28407;51.830;5.684;2022-11-06T04:53:06;11.00;83.60
42755;DHT22;28407;51.830;5.684;2022-11-06T04:55:08;11.00;83.70
42755;DHT22;28407;51.830;5.684;2022-11-06T04:57:09;11.00;83.70
42755;DHT22;28407;51.830;5.684;2022-11-06T04:59:14;11.00;83.80
42755;DHT22;28407;51.830;5.684;2022-11-06T05:01:15;11.00;83.80
42755;DHT22;28407;51.830;5.684;2022-11-06T05:03:15;11.00;83.90
42755;DHT22;28407;51.830;5.684;2022-11-06T05:05:16;11.00;83.80
42755;DHT22;28407;51.830;5.684;2022-11-06T05:07:17;11.00;83.80
42755;DHT22;28407;51.830;5.684;2022-11-06T05:09:17;11.00;83.80
42755;DHT22;28407;51.830;5.684;2022-11-06T05:11:18;11.00;83.90
42755;DHT22;28407;51.830;5.684;2022-11-06T05:13:18;11.00;83.90
42755;DHT22;28407;51.830;5.684;2022-11-06T05:15:19;11.00;83.90
42755;DHT22;28407;51.830;5.684;2022-11-06T05:17:20;11.00;84.00
42755;DHT22;28407;51.830;5.684;2022-11-06T05:19:20;11.00;84.00
42755;DHT22;28407;51.830;5.684;2022-11-06T05:21:21;10.90;83.90
42755;DHT22;28407;51.830;5.684;2022-11-06T05:23:41;10.90;84.00
42755;DHT22;28407;51.830;5.684;2022-11-06T05:25:42;10.90;84.00
42755;DHT22;28407;51.830;5.684;2022-11-06T05:27:42;10.90;84.00
42755;DHT22;28407;51.830;5.684;2022-11-06T05:29:43;10.90;84.10
42755;DHT22;28407;51.830;5.684;2022-11-06T05:31:44;10.90;84.10
42755;DHT22;28407;51.830;5.684;2022-11-06T05:33:44;10.90;84.10
42755;DHT22;28407;51.830;5.684;2022-11-06T05:35:45;10.80;84.00
42755;DHT22;28407;51.830;5.684;2022-11-06T05:37:46;10.90;84.20
42755;DHT22;28407;51.830;5.684;2022-11-06T05:39:46;10.90;84.20
42755;DHT22;28407;51.830;5.684;2022-11-06T05:41:47;10.90;84.20
42755;DHT22;28407;51.830;5.684;2022-11-06T05:43:47;10.90;84.20
42755;DHT22;28407;51.830;5.684;2022-11-06T05:45:48;10.80;84.20
42755;DHT22;28407;51.830;5.684;2022-11-06T05:47:49;10.90;84.30
42755;DHT22;28407;51.830;5.684;2022-11-06T05:49:49;10.90;84.30
42755;DHT22;28407;51.830;5.684;2022-11-06T05:51:50;10.90;84.30
42755;DHT22;28407;51.830;5.684;2022-11-06T05:53:50;10.80;84.20
42755;DHT22;28407;51.830;5.684;2022-11-06T05:55:51;10.90;84.30
42755;DHT22;28407;51.830;5.684;2022-11-06T05:57:51;10.90;84.30
42755;DHT22;28407;51.830;5.684;2022-11-06T05:59:52;10.90;84.30
42755;DHT22;28407;51.830;5.684;2022-11-06T06:01:52;10.90;84.30
42755;DHT22;28407;51.830;5.684;2022-11-06T06:03:53;10.90;84.30
42755;DHT22;28407;51.830;5.684;2022-11-06T06:05:54;10.90;84.30
42755;DHT22;28407;51.830;5.684;2022-11-06T06:07:54;10.90;84.30
42755;DHT22;28407;51.830;5.684;2022-11-06T06:09:55;10.90;84.30
42755;DHT22;28407;51.830;5.684;2022-11-06T06:11:55;10.90;84.30
42755;DHT22;28407;51.830;5.684;2022-11-06T06:13:56;10.90;84.30
42755;DHT22;28407;51.830;5.684;2022-11-06T06:16:00;10.90;84.30
42755;DHT22;28407;51.830;5.684;2022-11-06T06:18:01;11.00;84.40
42755;DHT22;28407;51.830;5.684;2022-11-06T06:20:01;11.00;84.40
42755;DHT22;28407;51.830;5.684;2022-11-06T06:22:02;11.00;84.40
42755;DHT22;28407;51.830;5.684;2022-11-06T06:24:04;11.00;84.40
42755;DHT22;28407;51.830;5.684;2022-11-06T06:26:04;11.00;84.40
42755;DHT22;28407;51.830;5.684;2022-11-06T06:28:05;11.00;84.40
42755;DHT22;28407;51.830;5.684;2022-11-06T06:30:06;11.00;84.40
42755;DHT22;28407;51.830;5.684;2022-11-06T06:32:07;11.00;85.00
42755;DHT22;28407;51.830;5.684;2022-11-06T06:34:08;11.00;84.40
42755;DHT22;28407;51.830;5.684;2022-11-06T06:36:08;11.00;84.40
42755;DHT22;28407;51.830;5.684;2022-11-06T06:38:09;11.00;84.40
42755;DHT22;28407;51.830;5.684;2022-11-06T06:40:10;11.00;84.40
42755;DHT22;28407;51.830;5.684;2022-11-06T06:42:11;11.00;84.50
42755;DHT22;28407;51.830;5.684;2022-11-06T06:44:11;11.00;84.50
42755;DHT22;28407;51.830;5.684;2022-11-06T06:46:12;11.00;84.50
42755;DHT22;28407;51.830;5.684;2022-11-06T06:48:13;11.00;84.50
42755;DHT22;28407;51.830;5.684;2022-11-06T06:50:14;11.00;84.50
42755;DHT22;28407;51.830;5.684;2022-11-06T06:52:14;11.00;84.50
42755;DHT22;28407;51.830;5.684;2022-11-06T06:54:15;11.00;84.50
42755;DHT22;28407;51.830;5.684;2022-11-06T06:56:16;11.00;84.50
42755;DHT22;28407;51.830;5.684;2022-11-06T06:58:16;11.00;84.50
42755;DHT22;28407;51.830;5.684;2022-11-06T07:00:17;11.00;84.60
42755;DHT22;28407;51.830;5.684;2022-11-06T07:02:18;10.90;84.50
42755;DHT22;28407;51.830;5.684;2022-11-06T07:04:18;10.90;84.50
42755;DHT22;28407;51.830;5.684;2022-11-06T07:06:19;11.00;84.50
42755;DHT22;28407;51.830;5.684;2022-11-06T07:08:20;11.00;84.60
42755;DHT22;28407;51.830;5.684;2022-11-06T07:10:20;11.00;84.60
42755;DHT22;28407;51.830;5.684;2022-11-06T07:12:21;11.00;84.60
42755;DHT22;28407;51.830;5.684;2022-11-06T07:14:22;11.00;84.60
42755;DHT22;28407;51.830;5.684;2022-11-06T07:16:22;11.00;84.60
42755;DHT22;28407;51.830;5.684;2022-11-06T07:18:24;11.00;84.50
42755;DHT22;28407;51.830;5.684;2022-11-06T07:20:25;11.10;84.50
42755;DHT22;28407;51.830;5.684;2022-11-06T07:22:26;11.00;84.50
42755;DHT22;28407;51.830;5.684;2022-11-06T07:24:27;11.10;84.50
42755;DHT22;28407;51.830;5.684;2022-11-06T07:26:27;11.10;84.50
42755;DHT22;28407;51.830;5.684;2022-11-06T07:28:28;11.10;84.50
42755;DHT22;28407;51.830;5.684;2022-11-06T07:30:29;11.10;84.50
42755;DHT22;28407;51.830;5.684;2022-11-06T07:32:30;11.10;84.50
42755;DHT22;28407;51.830;5.684;2022-11-06T07:34:31;11.10;84.50
42755;DHT22;28407;51.830;5.684;2022-11-06T07:36:34;11.10;84.40
42755;DHT22;28407;51.830;5.684;2022-11-06T07:38:35;11.10;84.40
42755;DHT22;28407;51.830;5.684;2022-11-06T07:40:36;11.20;84.50
42755;DHT22;28407;51.830;5.684;2022-11-06T07:42:36;11.20;84.50
42755;DHT22;28407;51.830;5.684;2022-11-06T07:44:37;11.20;84.50
42755;DHT22;28407;51.830;5.684;2022-11-06T07:46:38;11.20;84.50
42755;DHT22;28407;51.830;5.684;2022-11-06T07:48:39;11.20;84.50
42755;DHT22;28407;51.830;5.684;2022-11-06T07:50:39;11.20;84.50
42755;DHT22;28407;51.830;5.684;2022-11-06T07:52:40;11.20;84.40
42755;DHT22;28407;51.830;5.684;2022-11-06T07:54:40;11.20;84.40
42755;DHT22;28407;51.830;5.684;2022-11-06T07:56:41;11.20;84.30
42755;DHT22;28407;51.830;5.684;2022-11-06T07:58:41;11.30;84.40
42755;DHT22;28407;51.830;5.684;2022-11-06T08:00:49;11.30;84.40
42755;DHT22;28407;51.830;5.684;2022-11-06T08:02:51;11.30;84.40
42755;DHT22;28407;51.830;5.684;2022-11-06T08:04:52;11.30;84.40
42755;DHT22;28407;51.830;5.684;2022-11-06T08:06:53;11.30;84.30
42755;DHT22;28407;51.830;5.684;2022-11-06T08:08:53;11.30;84.30
42755;DHT22;28407;51.830;5.684;2022-11-06T08:10:54;11.30;84.30
42755;DHT22;28407;51.830;5.684;2022-11-06T08:12:54;11.30;84.30
42755;DHT22;28407;51.830;5.684;2022-11-06T08:14:55;11.30;84.40
42755;DHT22;28407;51.830;5.684;2022-11-06T08:16:56;11.30;84.40
42755;DHT22;28407;51.830;5.684;2022-11-06T08:18:57;11.30;84.40
42755;DHT22;28407;51.830;5.684;2022-11-06T08:20:58;11.30;84.40
42755;DHT22;28407;51.830;5.684;2022-11-06T08:23:04;11.30;84.50
42755;DHT22;28407;51.830;5.684;2022-11-06T08:25:05;11.30;84.40
42755;DHT22;28407;51.830;5.684;2022-11-06T08:27:06;11.40;84.40
42755;DHT22;28407;51.830;5.684;2022-11-06T08:29:07;11.40;84.40
42755;DHT22;28407;51.830;5.684;2022-11-06T08:31:08;11.40;84.30
42755;DHT22;28407;51.830;5.684;2022-11-06T08:33:10;11.40;84.30
42755;DHT22;28407;51.830;5.684;2022-11-06T08:35:10;11.40;84.30
42755;DHT22;28407;51.830;5.684;2022-11-06T08:37:11;11.40;84.30
42755;DHT22;28407;51.830;5.684;2022-11-06T08:39:12;11.40;84.30
42755;DHT22;28407;51.830;5.684;2022-11-06T08:41:13;11.40;84.30
42755;DHT22;28407;51.830;5.684;2022-11-06T08:43:14;11.50;84.30
42755;DHT22;28407;51.830;5.684;2022-11-06T08:45:14;11.40;84.30
42755;DHT22;28407;51.830;5.684;2022-11-06T08:47:15;11.50;84.30
42755;DHT22;28407;51.830;5.684;2022-11-06T08:49:15;11.50;84.30
42755;DHT22;28407;51.830;5.684;2022-11-06T08:51:16;11.50;84.30
42755;DHT22;28407;51.830;5.684;2022-11-06T08:53:17;11.50;84.30
42755;DHT22;28407;51.830;5.684;2022-11-06T08:55:17;11.50;84.30
42755;DHT22;28407;51.830;5.684;2022-11-06T08:57:18;11.60;84.30
42755;DHT22;28407;51.830;5.684;2022-11-06T08:59:18;11.60;84.20
42755;DHT22;28407;51.830;5.684;2022-11-06T09:01:19;11.60;84.10
42755;DHT22;28407;51.830;5.684;2022-11-06T09:03:19;11.70;84.10
42755;DHT22;28407;51.830;5.684;2022-11-06T09:05:20;11.70;84.10
42755;DHT22;28407;51.830;5.684;2022-11-06T09:07:21;11.70;84.10
42755;DHT22;28407;51.830;5.684;2022-11-06T09:09:21;11.80;84.10
42755;DHT22;28407;51.830;5.684;2022-11-06T09:11:22;11.80;84.00
42755;DHT22;28407;51.830;5.684;2022-11-06T09:13:23;11.80;83.90
42755;DHT22;28407;51.830;5.684;2022-11-06T09:15:23;11.90;83.90
42755;DHT22;28407;51.830;5.684;2022-11-06T09:17:24;11.90;83.90
42755;DHT22;28407;51.830;5.684;2022-11-06T09:19:24;11.90;83.80
42755;DHT22;28407;51.830;5.684;2022-11-06T09:21:25;12.00;83.80
42755;DHT22;28407;51.830;5.684;2022-11-06T09:23:25;12.00;83.70
42755;DHT22;28407;51.830;5.684;2022-11-06T09:25:26;12.00;83.70
42755;DHT22;28407;51.830;5.684;2022-11-06T09:27:27;12.10;83.70
42755;DHT22;28407;51.830;5.684;2022-11-06T09:29:28;12.10;83.70
42755;DHT22;28407;51.830;5.684;2022-11-06T09:31:29;12.10;83.60
42755;DHT22;28407;51.830;5.684;2022-11-06T09:33:29;12.20;83.70
42755;DHT22;28407;51.830;5.684;2022-11-06T09:35:32;12.20;83.60
42755;DHT22;28407;51.830;5.684;2022-11-06T09:37:32;12.20;83.50
42755;DHT22;28407;51.830;5.684;2022-11-06T09:39:33;12.20;83.40
42755;DHT22;28407;51.830;5.684;2022-11-06T09:41:50;12.30;83.40
42755;DHT22;28407;51.830;5.684;2022-11-06T09:46:18;12.30;83.30
42755;DHT22;28407;51.830;5.684;2022-11-06T09:48:27;12.30;83.30
42755;DHT22;28407;51.830;5.684;2022-11-06T09:50:34;12.40;83.20
42755;DHT22;28407;51.830;5.684;2022-11-06T09:52:41;12.40;83.20
42755;DHT22;28407;51.830;5.684;2022-11-06T09:54:56;12.50;83.10
42755;DHT22;28407;51.830;5.684;2022-11-06T09:57:05;12.50;83.10
42755;DHT22;28407;51.830;5.684;2022-11-06T09:59:13;12.50;83.00
42755;DHT22;28407;51.830;5.684;2022-11-06T10:01:19;12.60;83.00
42755;DHT22;28407;51.830;5.684;2022-11-06T10:03:44;12.70;82.90
42755;DHT22;28407;51.830;5.684;2022-11-06T10:05:46;12.70;82.80
42755;DHT22;28407;51.830;5.684;2022-11-06T10:07:51;12.70;82.70
42755;DHT22;28407;51.830;5.684;2022-11-06T10:09:52;12.80;82.70
42755;DHT22;28407;51.830;5.684;2022-11-06T10:12:11;12.80;82.60
42755;DHT22;28407;51.830;5.684;2022-11-06T10:23:28;12.90;82.50
42755;DHT22;28407;51.830;5.684;2022-11-06T10:26:04;12.90;82.50
42755;DHT22;28407;51.830;5.684;2022-11-06T10:30:19;13.00;82.20
42755;DHT22;28407;51.830;5.684;2022-11-06T10:35:05;13.10;82.10
42755;DHT22;28407;51.830;5.684;2022-11-06T10:37:18;13.10;81.90
42755;DHT22;28407;51.830;5.684;2022-11-06T10:39:25;13.10;81.90
42755;DHT22;28407;51.830;5.684;2022-11-06T10:41:31;13.10;81.90
42755;DHT22;28407;51.830;5.684;2022-11-06T10:43:47;13.10;81.90
42755;DHT22;28407;51.830;5.684;2022-11-06T10:45:52;13.10;81.90
42755;DHT22;28407;51.830;5.684;2022-11-06T10:47:59;13.20;81.90
42755;DHT22;28407;51.830;5.684;2022-11-06T10:50:05;13.20;81.80
42755;DHT22;28407;51.830;5.684;2022-11-06T10:57:23;13.30;81.50
42755;DHT22;28407;51.830;5.684;2022-11-06T10:59:26;13.20;81.30
42755;DHT22;28407;51.830;5.684;2022-11-06T11:01:27;13.30;81.40
42755;DHT22;28407;51.830;5.684;2022-11-06T11:03:32;13.20;81.40
42755;DHT22;28407;51.830;5.684;2022-11-06T11:05:38;13.20;81.40
42755;DHT22;28407;51.830;5.684;2022-11-06T11:07:39;13.20;81.40
42755;DHT22;28407;51.830;5.684;2022-11-06T11:09:41;13.10;81.30
42755;DHT22;28407;51.830;5.684;2022-11-06T11:11:47;13.10;81.30
42755;DHT22;28407;51.830;5.684;2022-11-06T11:14:12;13.10;81.30
42755;DHT22;28407;51.830;5.684;2022-11-06T11:16:17;13.10;81.30
42755;DHT22;28407;51.830;5.684;2022-11-06T11:18:26;13.10;81.10
42755;DHT22;28407;51.830;5.684;2022-11-06T11:20:37;13.10;81.00
42755;DHT22;28407;51.830;5.684;2022-11-06T11:22:37;13.10;81.00
42755;DHT22;28407;51.830;5.684;2022-11-06T11:25:04;13.10;81.00
42755;DHT22;28407;51.830;5.684;2022-11-06T11:27:05;13.10;81.00
42755;DHT22;28407;51.830;5.684;2022-11-06T11:29:16;13.10;80.90
42755;DHT22;28407;51.830;5.684;2022-11-06T11:31:20;13.10;80.90
42755;DHT22;28407;51.830;5.684;2022-11-06T11:33:26;13.20;80.90
42755;DHT22;28407;51.830;5.684;2022-11-06T11:35:29;13.20;80.80
42755;DHT22;28407;51.830;5.684;2022-11-06T11:37:32;13.20;80.70
42755;DHT22;28407;51.830;5.684;2022-11-06T11:39:43;13.30;80.50
42755;DHT22;28407;51.830;5.684;2022-11-06T11:41:44;13.40;80.50
42755;DHT22;28407;51.830;5.684;2022-11-06T11:44:14;13.40;80.20
42755;DHT22;28407;51.830;5.684;2022-11-06T11:46:18;13.50;80.00
42755;DHT22;28407;51.830;5.684;2022-11-06T11:48:19;13.60;79.60
42755;DHT22;28407;51.830;5.684;2022-11-06T11:52:28;13.60;79.20
42755;DHT22;28407;51.830;5.684;2022-11-06T11:54:32;13.60;79.10
42755;DHT22;28407;51.830;5.684;2022-11-06T11:56:43;13.60;79.00
42755;DHT22;28407;51.830;5.684;2022-11-06T11:58:55;13.60;78.90
42755;DHT22;28407;51.830;5.684;2022-11-06T12:01:01;13.60;78.70
42755;DHT22;28407;51.830;5.684;2022-11-06T12:03:09;13.60;78.50
42755;DHT22;28407;51.830;5.684;2022-11-06T12:05:17;13.60;78.50
42755;DHT22;28407;51.830;5.684;2022-11-06T12:07:30;13.60;78.40
42755;DHT22;28407;51.830;5.684;2022-11-06T12:09:41;13.60;78.20
42755;DHT22;28407;51.830;5.684;2022-11-06T12:11:42;13.60;78.10
42755;DHT22;28407;51.830;5.684;2022-11-06T12:13:43;13.60;78.10
42755;DHT22;28407;51.830;5.684;2022-11-06T12:18:01;13.60;78.00
42755;DHT22;28407;51.830;5.684;2022-11-06T12:20:08;13.50;78.00
42755;DHT22;28407;51.830;5.684;2022-11-06T12:22:15;13.50;77.90
42755;DHT22;28407;51.830;5.684;2022-11-06T12:24:22;13.50;77.90
42755;DHT22;28407;51.830;5.684;2022-11-06T12:26:48;13.50;77.90
42755;DHT22;28407;51.830;5.684;2022-11-06T12:28:56;13.50;78.00
42755;DHT22;28407;51.830;5.684;2022-11-06T12:31:05;13.50;77.90
42755;DHT22;28407;51.830;5.684;2022-11-06T12:33:19;13.40;77.80
42755;DHT22;28407;51.830;5.684;2022-11-06T12:35:52;13.40;77.80
42755;DHT22;28407;51.830;5.684;2022-11-06T12:38:26;13.40;77.60
42755;DHT22;28407;51.830;5.684;2022-11-06T12:40:36;13.40;77.50
42755;DHT22;28407;51.830;5.684;2022-11-06T12:42:39;13.40;77.50
42755;DHT22;28407;51.830;5.684;2022-11-06T12:44:41;13.30;77.40
42755;DHT22;28407;51.830;5.684;2022-11-06T12:49:30;13.30;77.30
42755;DHT22;28407;51.830;5.684;2022-11-06T12:51:44;13.30;77.30
42755;DHT22;28407;51.830;5.684;2022-11-06T12:54:02;13.30;77.40
42755;DHT22;28407;51.830;5.684;2022-11-06T12:58:40;13.30;77.30
42755;DHT22;28407;51.830;5.684;2022-11-06T13:01:08;13.30;77.20
42755;DHT22;28407;51.830;5.684;2022-11-06T13:03:32;13.30;77.20
42755;DHT22;28407;51.830;5.684;2022-11-06T13:05:44;13.30;77.00
42755;DHT22;28407;51.830;5.684;2022-11-06T13:08:24;13.30;76.90
42755;DHT22;28407;51.830;5.684;2022-11-06T13:10:35;13.30;77.50
42755;DHT22;28407;51.830;5.684;2022-11-06T13:12:47;13.30;76.90
42755;DHT22;28407;51.830;5.684;2022-11-06T13:15:24;13.30;76.80
42755;DHT22;28407;51.830;5.684;2022-11-06T13:17:30;13.30;76.60
42755;DHT22;28407;51.830;5.684;2022-11-06T13:24:20;13.30;76.40
42755;DHT22;28407;51.830;5.684;2022-11-06T13:26:39;13.30;76.30
42755;DHT22;28407;51.830;5.684;2022-11-06T13:28:47;13.30;76.30
42755;DHT22;28407;51.830;5.684;2022-11-06T13:30:51;13.30;76.20
42755;DHT22;28407;51.830;5.684;2022-11-06T13:35:03;13.30;75.90
42755;DHT22;28407;51.830;5.684;2022-11-06T13:37:19;13.20;75.80
42755;DHT22;28407;51.830;5.684;2022-11-06T13:39:31;13.30;75.70
42755;DHT22;28407;51.830;5.684;2022-11-06T13:41:34;13.20;75.70
42755;DHT22;28407;51.830;5.684;2022-11-06T13:43:38;13.20;75.60
42755;DHT22;28407;51.830;5.684;2022-11-06T13:46:02;13.20;75.60
42755;DHT22;28407;51.830;5.684;2022-11-06T13:50:52;13.20;75.50
42755;DHT22;28407;51.830;5.684;2022-11-06T13:53:02;13.10;75.40
42755;DHT22;28407;51.830;5.684;2022-11-06T13:55:27;13.10;75.50
42755;DHT22;28407;51.830;5.684;2022-11-06T14:00:19;13.10;75.40
42755;DHT22;28407;51.830;5.684;2022-11-06T14:06:57;13.10;75.40
42755;DHT22;28407;51.830;5.684;2022-11-06T14:09:04;13.00;75.40
42755;DHT22;28407;51.830;5.684;2022-11-06T14:11:11;13.00;75.50
42755;DHT22;28407;51.830;5.684;2022-11-06T14:13:14;12.90;75.50
42755;DHT22;28407;51.830;5.684;2022-11-06T14:17:21;12.90;75.50
42755;DHT22;28407;51.830;5.684;2022-11-06T14:19:23;12.90;75.50